createdAt,value
2022-09-14T00:03:42.886Z,15.10
2022-09-14T00:09:44.582Z,14.90
2022-09-14T00:15:46.278Z,15.20
2022-09-14T00:21:50.805Z,15.40
2022-09-14T00:27:52.996Z,15.20
2022-09-14T00:33:54.627Z,15.00
2022-09-14T00:39:56.474Z,15.10
2022-09-14T00:46:00.001Z,14.90
2022-09-14T00:52:09.307Z,15.00
2022-09-14T00:58:11.030Z,15.10
2022-09-14T01:04:12.785Z,15.00
2022-09-14T01:10:43.583Z,14.80
2022-09-14T01:16:53.705Z,14.90
2022-09-14T01:22:58.794Z,14.80
2022-09-14T01:29:03.462Z,14.70
2022-09-14T01:35:10.504Z,14.80
2022-09-14T01:41:16.397Z,14.60
2022-09-14T01:47:27.200Z,14.60
2022-09-14T01:53:43.954Z,14.60
2022-09-14T01:59:46.484Z,14.60
2022-09-14T02:05:54.152Z,14.70
2022-09-14T02:12:00.486Z,14.50
2022-09-14T02:18:02.550Z,14.50
2022-09-14T02:24:04.571Z,14.40
2022-09-14T02:30:06.611Z,14.20
2022-09-14T02:36:13.959Z,14.20
2022-09-14T02:42:36.985Z,14.30
2022-09-14T02:48:57.465Z,14.20
2022-09-14T02:55:19.698Z,14.10
2022-09-14T03:01:22.006Z,14.10
2022-09-14T03:07:23.679Z,14.20
2022-09-14T03:13:25.279Z,14.10
2022-09-14T03:19:26.849Z,14.10
2022-09-14T03:25:28.802Z,14.10
2022-09-14T03:31:30.464Z,14.00
2022-09-14T03:37:32.083Z,14.00
2022-09-14T03:43:34.009Z,13.90
2022-09-14T03:49:35.603Z,13.60
2022-09-14T03:55:39.592Z,13.70
2022-09-14T04:01:42.226Z,13.70
2022-09-14T04:07:43.823Z,13.70
2022-09-14T04:13:46.116Z,13.60
2022-09-14T04:19:47.699Z,13.50
2022-09-14T04:25:49.448Z,13.40
2022-09-14T04:31:51.051Z,13.60
2022-09-14T04:37:52.727Z,13.60
2022-09-14T04:43:54.793Z,13.40
2022-09-14T04:49:56.371Z,13.50
2022-09-14T04:56:01.639Z,13.50
2022-09-14T05:02:03.306Z,13.40
2022-09-14T05:08:05.028Z,13.40
2022-09-14T05:14:06.804Z,13.50
2022-09-14T05:20:08.737Z,13.50
2022-09-14T05:26:10.680Z,13.50
2022-09-14T05:32:12.878Z,13.50
2022-09-14T05:38:14.600Z,13.40
2022-09-14T05:44:16.260Z,13.40
2022-09-14T05:50:17.860Z,13.40
2022-09-14T05:56:19.917Z,13.40
2022-09-14T06:02:21.611Z,13.60
2022-09-14T06:08:23.609Z,13.60
2022-09-14T06:14:25.257Z,13.70
2022-09-14T06:20:26.886Z,13.80
2022-09-14T06:26:28.617Z,13.80
2022-09-14T06:32:30.433Z,13.90
2022-09-14T06:38:32.830Z,14.00
2022-09-14T06:44:34.464Z,14.10
2022-09-14T06:50:36.061Z,14.00
2022-09-14T06:56:39.074Z,14.20
2022-09-14T07:02:41.170Z,14.20
2022-09-14T07:08:43.378Z,14.30
2022-09-14T07:14:45.030Z,14.40
2022-09-14T07:20:46.623Z,14.40
2022-09-14T07:26:48.576Z,14.50
2022-09-14T07:32:50.525Z,14.60
2022-09-14T07:38:53.318Z,14.60
2022-09-14T07:44:55.192Z,14.80
2022-09-14T07:51:03.628Z,14.90
2022-09-14T07:57:05.206Z,15.00
2022-09-14T08:03:07.078Z,15.20
2022-09-14T08:09:08.937Z,15.20
2022-09-14T08:15:10.730Z,15.40
2022-09-14T08:21:13.821Z,15.40
2022-09-14T08:27:17.235Z,15.50
2022-09-14T08:33:19.039Z,15.50
2022-09-14T08:39:20.683Z,15.50
2022-09-14T08:45:24.070Z,15.70
2022-09-14T08:51:25.805Z,15.80
2022-09-14T08:57:45.696Z,15.80
2022-09-14T09:03:59.654Z,15.80
2022-09-14T09:10:04.388Z,15.90
2022-09-14T09:16:09.409Z,15.90
2022-09-14T09:22:14.124Z,16.10
2022-09-14T09:28:16.777Z,16.20
2022-09-14T09:34:22.760Z,16.20
2022-09-14T09:40:50.452Z,16.30
2022-09-14T09:46:56.481Z,16.20
2022-09-14T09:53:01.176Z,16.10
2022-09-14T09:59:29.612Z,15.90
2022-09-14T10:05:34.403Z,15.80
2022-09-14T10:11:37.821Z,15.90
2022-09-14T10:17:39.510Z,15.90
2022-09-14T10:23:41.162Z,15.90
2022-09-14T10:29:42.845Z,15.90
2022-09-14T10:35:56.542Z,16.10
2022-09-14T10:42:01.784Z,16.10
2022-09-14T10:48:22.064Z,16.20
2022-09-14T10:54:37.139Z,16.10
2022-09-14T11:00:47.837Z,16.10
2022-09-14T11:07:06.391Z,16.20
2022-09-14T11:13:34.281Z,16.20
2022-09-14T11:19:35.857Z,16.20
2022-09-14T11:25:43.348Z,16.30
2022-09-14T11:32:16.905Z,16.30
2022-09-14T11:38:25.525Z,16.30
2022-09-14T11:44:47.385Z,16.20
2022-09-14T11:50:51.661Z,16.30
2022-09-14T11:57:03.467Z,16.20
2022-09-14T12:03:05.485Z,16.10
2022-09-14T12:09:21.031Z,16.20
2022-09-14T12:15:26.135Z,16.10
2022-09-14T12:21:28.371Z,16.20
2022-09-14T12:27:31.285Z,16.20
2022-09-14T12:33:32.951Z,16.20
2022-09-14T12:39:35.554Z,16.10
2022-09-14T12:46:00.539Z,16.20
2022-09-14T12:52:04.610Z,16.20
2022-09-14T12:58:21.174Z,16.20
2022-09-14T13:04:27.188Z,16.20
2022-09-14T13:10:36.344Z,16.10
2022-09-14T13:16:41.916Z,16.10
2022-09-14T13:22:43.623Z,16.20
2022-09-14T13:28:46.525Z,16.20
2022-09-14T13:34:48.214Z,16.20
2022-09-14T13:40:50.746Z,16.20
2022-09-14T13:46:52.613Z,16.20
2022-09-14T13:53:03.296Z,16.20
2022-09-14T13:59:08.690Z,16.20
2022-09-14T14:05:20.033Z,16.30
2022-09-14T14:11:36.522Z,16.30
2022-09-14T14:17:38.980Z,16.30
2022-09-14T14:24:02.542Z,16.40
2022-09-14T14:30:20.367Z,16.30
2022-09-14T14:36:22.015Z,16.30
2022-09-14T14:42:23.604Z,16.30
2022-09-14T14:48:26.269Z,16.40
2022-09-14T14:54:28.938Z,16.40
2022-09-14T15:00:32.512Z,16.40
2022-09-14T15:06:34.090Z,16.40
2022-09-14T15:12:35.706Z,16.40
2022-09-14T15:18:37.333Z,16.40
2022-09-14T15:24:38.997Z,16.40
2022-09-14T15:30:41.630Z,16.50
2022-09-14T15:36:47.744Z,16.40
2022-09-14T15:42:49.407Z,16.40
2022-09-14T15:48:51.010Z,16.50
2022-09-14T15:54:52.613Z,16.40
2022-09-14T16:00:54.300Z,16.30
2022-09-14T16:06:55.985Z,16.30
2022-09-14T16:12:57.589Z,16.10
2022-09-14T16:19:03.737Z,16.20
2022-09-14T16:25:05.515Z,16.20
2022-09-14T16:31:11.869Z,16.20
2022-09-14T16:37:13.773Z,16.10
2022-09-14T16:43:15.382Z,16.10
2022-09-14T16:49:17.673Z,16.00
2022-09-14T16:55:19.269Z,16.00
2022-09-14T17:01:28.742Z,15.90
2022-09-14T17:07:30.420Z,15.90
2022-09-14T17:13:32.575Z,15.80
2022-09-14T17:19:34.204Z,15.70
2022-09-14T17:25:36.036Z,15.60
2022-09-14T17:31:39.592Z,15.40
2022-09-14T17:37:41.231Z,15.30
2022-09-14T17:43:43.005Z,15.30
2022-09-14T17:49:44.611Z,15.20
2022-09-14T17:55:46.648Z,15.10
2022-09-14T18:01:48.978Z,15.10
2022-09-14T18:07:51.434Z,15.00
2022-09-14T18:13:53.098Z,15.00
2022-09-14T18:19:58.331Z,14.80
2022-09-14T18:26:01.071Z,14.80
2022-09-14T18:32:02.740Z,14.80
2022-09-14T18:38:06.567Z,14.70
2022-09-14T18:44:08.250Z,14.70
2022-09-14T18:50:09.925Z,14.70
2022-09-14T18:56:13.152Z,14.60
2022-09-14T19:02:15.046Z,14.60
2022-09-14T19:08:16.800Z,14.50
2022-09-14T19:14:20.544Z,14.50
2022-09-14T19:20:23.131Z,14.50
2022-09-14T19:26:24.835Z,14.50
2022-09-14T19:32:26.640Z,14.40
2022-09-14T19:38:28.725Z,14.40
2022-09-14T19:44:30.368Z,14.40
2022-09-14T19:50:31.986Z,14.40
2022-09-14T19:56:33.727Z,14.40
2022-09-14T20:02:35.411Z,14.30
2022-09-14T20:08:37.533Z,14.30
2022-09-14T20:14:39.134Z,14.40
2022-09-14T20:20:42.147Z,14.40
2022-09-14T20:26:47.608Z,14.50
2022-09-14T20:32:49.192Z,14.50
2022-09-14T20:38:52.299Z,14.50
2022-09-14T20:44:53.915Z,14.40
2022-09-14T20:50:56.054Z,14.20
2022-09-14T20:57:02.211Z,14.10
2022-09-14T21:03:05.941Z,14.00
2022-09-14T21:09:08.064Z,14.10
2022-09-14T21:15:09.853Z,14.10
2022-09-14T21:21:12.567Z,14.10
2022-09-14T21:27:14.302Z,14.10
2022-09-14T21:33:16.520Z,14.10
2022-09-14T21:39:21.428Z,14.00
2022-09-14T21:45:23.035Z,14.00
2022-09-14T21:51:26.541Z,14.00
2022-09-14T21:57:28.107Z,14.00
2022-09-14T22:03:29.774Z,14.10
2022-09-14T22:09:31.404Z,14.00
2022-09-14T22:15:33.651Z,14.00
2022-09-14T22:21:37.092Z,13.90
2022-09-14T22:27:39.072Z,13.90
2022-09-14T22:33:40.837Z,13.90
2022-09-14T22:39:42.466Z,14.00
2022-09-14T22:45:44.102Z,14.00
2022-09-14T22:51:45.778Z,13.90
2022-09-14T22:57:47.368Z,13.90
2022-09-14T23:03:49.049Z,13.90
2022-09-14T23:09:50.679Z,13.90
2022-09-14T23:15:52.251Z,13.90
2022-09-14T23:21:54.019Z,13.90
2022-09-14T23:27:55.608Z,14.00
2022-09-14T23:33:58.942Z,13.90
2022-09-14T23:40:00.599Z,13.90
2022-09-14T23:46:02.257Z,13.80
2022-09-14T23:52:03.980Z,13.80
2022-09-14T23:58:05.737Z,13.80
